sensor_id;sensor_type;location;lat;lon;timestamp;P1;durP1;ratioP1;P2;durP2;ratioP2
1136;SDS011;557;48.466;7.950;2022-12-07T00:01:17;19.70;;;9.93;;
1136;SDS011;557;48.466;7.950;2022-12-07T00:04:05;21.57;;;10.53;;
1136;SDS011;557;48.466;7.950;2022-12-07T00:06:53;20.80;;;11.10;;
1136;SDS011;557;48.466;7.950;2022-12-07T00:09:39;21.13;;;10.53;;
1136;SDS011;557;48.466;7.950;2022-12-07T00:12:25;18.13;;;9.63;;
1136;SDS011;557;48.466;7.950;2022-12-07T00:15:10;23.27;;;10.40;;
1136;SDS011;557;48.466;7.950;2022-12-07T00:17:56;20.00;;;10.60;;
1136;SDS011;557;48.466;7.950;2022-12-07T00:20:41;20.60;;;11.07;;
1136;SDS011;557;48.466;7.950;2022-12-07T00:23:28;21.93;;;10.43;;
1136;SDS011;557;48.466;7.950;2022-12-07T00:26:14;22.43;;;10.97;;
1136;SDS011;557;48.466;7.950;2022-12-07T00:29:03;20.37;;;9.30;;
1136;SDS011;557;48.466;7.950;2022-12-07T00:31:50;22.40;;;11.33;;
1136;SDS011;557;48.466;7.950;2022-12-07T00:34:35;21.20;;;10.20;;
1136;SDS011;557;48.466;7.950;2022-12-07T00:37:21;20.50;;;10.50;;
1136;SDS011;557;48.466;7.950;2022-12-07T00:40:09;21.47;;;11.57;;
1136;SDS011;557;48.466;7.950;2022-12-07T00:42:55;21.90;;;10.40;;
1136;SDS011;557;48.466;7.950;2022-12-07T00:45:41;21.00;;;10.80;;
1136;SDS011;557;48.466;7.950;2022-12-07T00:48:26;23.83;;;11.10;;
1136;SDS011;557;48.466;7.950;2022-12-07T00:51:12;18.20;;;9.57;;
1136;SDS011;557;48.466;7.950;2022-12-07T00:53:59;22.00;;;10.37;;
1136;SDS011;557;48.466;7.950;2022-12-07T00:56:46;23.53;;;11.07;;
1136;SDS011;557;48.466;7.950;2022-12-07T00:59:31;20.47;;;10.23;;
1136;SDS011;557;48.466;7.950;2022-12-07T01:02:17;18.60;;;9.80;;
1136;SDS011;557;48.466;7.950;2022-12-07T01:05:03;18.27;;;10.53;;
1136;SDS011;557;48.466;7.950;2022-12-07T01:07:49;22.47;;;10.40;;
1136;SDS011;557;48.466;7.950;2022-12-07T01:10:34;20.00;;;9.87;;
1136;SDS011;557;48.466;7.950;2022-12-07T01:13:21;20.20;;;10.37;;
1136;SDS011;557;48.466;7.950;2022-12-07T01:16:07;19.80;;;11.00;;
1136;SDS011;557;48.466;7.950;2022-12-07T01:18:55;24.37;;;11.20;;
1136;SDS011;557;48.466;7.950;2022-12-07T01:21:42;22.70;;;11.70;;
1136;SDS011;557;48.466;7.950;2022-12-07T01:24:27;19.20;;;10.53;;
1136;SDS011;557;48.466;7.950;2022-12-07T01:27:13;21.33;;;10.20;;
1136;SDS011;557;48.466;7.950;2022-12-07T01:30:00;22.00;;;10.90;;
1136;SDS011;557;48.466;7.950;2022-12-07T01:32:47;19.77;;;10.77;;
1136;SDS011;557;48.466;7.950;2022-12-07T01:35:33;21.10;;;11.00;;
1136;SDS011;557;48.466;7.950;2022-12-07T01:38:19;19.97;;;11.33;;
1136;SDS011;557;48.466;7.950;2022-12-07T01:41:05;21.77;;;9.77;;
1136;SDS011;557;48.466;7.950;2022-12-07T01:46:58;17.73;;;9.60;;
1136;SDS011;557;48.466;7.950;2022-12-07T01:49:45;19.53;;;10.80;;
1136;SDS011;557;48.466;7.950;2022-12-07T01:52:33;19.67;;;10.10;;
1136;SDS011;557;48.466;7.950;2022-12-07T01:55:21;22.57;;;11.23;;
1136;SDS011;557;48.466;7.950;2022-12-07T01:58:07;23.10;;;11.33;;
1136;SDS011;557;48.466;7.950;2022-12-07T02:00:54;25.43;;;11.50;;
1136;SDS011;557;48.466;7.950;2022-12-07T02:03:41;21.30;;;10.90;;
1136;SDS011;557;48.466;7.950;2022-12-07T02:06:28;20.30;;;10.70;;
1136;SDS011;557;48.466;7.950;2022-12-07T02:09:14;19.90;;;9.50;;
1136;SDS011;557;48.466;7.950;2022-12-07T02:11:59;22.43;;;12.00;;
1136;SDS011;557;48.466;7.950;2022-12-07T02:14:45;25.77;;;11.03;;
1136;SDS011;557;48.466;7.950;2022-12-07T02:17:32;20.60;;;10.60;;
1136;SDS011;557;48.466;7.950;2022-12-07T02:20:30;21.80;;;11.20;;
1136;SDS011;557;48.466;7.950;2022-12-07T02:26:30;22.40;;;10.47;;
1136;SDS011;557;48.466;7.950;2022-12-07T02:29:49;24.57;;;11.40;;
1136;SDS011;557;48.466;7.950;2022-12-07T02:32:45;23.50;;;12.40;;
1136;SDS011;557;48.466;7.950;2022-12-07T02:35:38;29.17;;;11.73;;
1136;SDS011;557;48.466;7.950;2022-12-07T02:38:29;22.20;;;11.67;;
1136;SDS011;557;48.466;7.950;2022-12-07T02:41:20;21.27;;;9.80;;
1136;SDS011;557;48.466;7.950;2022-12-07T02:44:10;21.37;;;9.43;;
1136;SDS011;557;48.466;7.950;2022-12-07T02:47:01;22.07;;;10.73;;
1136;SDS011;557;48.466;7.950;2022-12-07T02:49:49;23.10;;;11.07;;
1136;SDS011;557;48.466;7.950;2022-12-07T02:52:36;22.03;;;10.67;;
1136;SDS011;557;48.466;7.950;2022-12-07T02:55:22;23.80;;;10.60;;
1136;SDS011;557;48.466;7.950;2022-12-07T02:58:16;21.20;;;11.50;;
1136;SDS011;557;48.466;7.950;2022-12-07T03:01:12;21.27;;;11.00;;
1136;SDS011;557;48.466;7.950;2022-12-07T03:04:10;21.53;;;10.37;;
1136;SDS011;557;48.466;7.950;2022-12-07T03:07:11;25.63;;;11.20;;
1136;SDS011;557;48.466;7.950;2022-12-07T03:10:07;18.77;;;9.70;;
1136;SDS011;557;48.466;7.950;2022-12-07T03:12:59;26.43;;;11.60;;
1136;SDS011;557;48.466;7.950;2022-12-07T03:15:51;30.37;;;12.47;;
1136;SDS011;557;48.466;7.950;2022-12-07T03:18:44;26.30;;;11.97;;
1136;SDS011;557;48.466;7.950;2022-12-07T03:21:38;28.83;;;11.77;;
1136;SDS011;557;48.466;7.950;2022-12-07T03:24:27;25.50;;;11.97;;
1136;SDS011;557;48.466;7.950;2022-12-07T03:27:16;20.70;;;10.07;;
1136;SDS011;557;48.466;7.950;2022-12-07T03:30:06;29.70;;;12.30;;
1136;SDS011;557;48.466;7.950;2022-12-07T03:32:55;26.67;;;12.57;;
1136;SDS011;557;48.466;7.950;2022-12-07T03:35:45;26.40;;;11.97;;
1136;SDS011;557;48.466;7.950;2022-12-07T03:38:37;26.37;;;11.63;;
1136;SDS011;557;48.466;7.950;2022-12-07T03:41:31;23.37;;;11.67;;
1136;SDS011;557;48.466;7.950;2022-12-07T03:44:21;24.63;;;12.13;;
1136;SDS011;557;48.466;7.950;2022-12-07T03:47:09;25.17;;;10.83;;
1136;SDS011;557;48.466;7.950;2022-12-07T03:49:59;21.93;;;10.07;;
1136;SDS011;557;48.466;7.950;2022-12-07T03:52:52;22.90;;;11.57;;
1136;SDS011;557;48.466;7.950;2022-12-07T03:55:43;21.77;;;10.60;;
1136;SDS011;557;48.466;7.950;2022-12-07T03:58:30;26.90;;;12.53;;
1136;SDS011;557;48.466;7.950;2022-12-07T04:01:18;27.27;;;13.80;;
1136;SDS011;557;48.466;7.950;2022-12-07T04:04:04;23.80;;;11.70;;
1136;SDS011;557;48.466;7.950;2022-12-07T04:06:50;19.70;;;11.50;;
1136;SDS011;557;48.466;7.950;2022-12-07T04:09:36;26.07;;;11.53;;
1136;SDS011;557;48.466;7.950;2022-12-07T04:12:23;22.00;;;11.70;;
1136;SDS011;557;48.466;7.950;2022-12-07T04:15:09;28.03;;;11.27;;
1136;SDS011;557;48.466;7.950;2022-12-07T04:17:54;26.63;;;12.13;;
1136;SDS011;557;48.466;7.950;2022-12-07T04:20:40;20.97;;;9.70;;
1136;SDS011;557;48.466;7.950;2022-12-07T04:23:26;21.70;;;10.70;;
1136;SDS011;557;48.466;7.950;2022-12-07T04:26:11;20.20;;;9.43;;
1136;SDS011;557;48.466;7.950;2022-12-07T04:28:58;17.20;;;9.07;;
1136;SDS011;557;48.466;7.950;2022-12-07T04:31:44;29.83;;;11.70;;
1136;SDS011;557;48.466;7.950;2022-12-07T04:34:30;19.57;;;9.87;;
1136;SDS011;557;48.466;7.950;2022-12-07T04:37:16;19.63;;;8.70;;
1136;SDS011;557;48.466;7.950;2022-12-07T04:40:02;21.27;;;9.87;;
1136;SDS011;557;48.466;7.950;2022-12-07T04:42:48;19.90;;;8.83;;
1136;SDS011;557;48.466;7.950;2022-12-07T04:45:35;18.13;;;9.10;;
1136;SDS011;557;48.466;7.950;2022-12-07T04:48:21;17.30;;;8.63;;
1136;SDS011;557;48.466;7.950;2022-12-07T04:51:06;19.10;;;10.80;;
1136;SDS011;557;48.466;7.950;2022-12-07T04:53:52;18.77;;;9.90;;
1136;SDS011;557;48.466;7.950;2022-12-07T04:56:38;16.70;;;8.90;;
1136;SDS011;557;48.466;7.950;2022-12-07T04:59:24;17.30;;;9.17;;
1136;SDS011;557;48.466;7.950;2022-12-07T05:02:11;19.87;;;9.03;;
1136;SDS011;557;48.466;7.950;2022-12-07T05:04:56;18.00;;;9.50;;
1136;SDS011;557;48.466;7.950;2022-12-07T05:07:42;18.90;;;9.80;;
1136;SDS011;557;48.466;7.950;2022-12-07T05:10:27;22.47;;;10.17;;
1136;SDS011;557;48.466;7.950;2022-12-07T05:13:13;19.80;;;9.10;;
1136;SDS011;557;48.466;7.950;2022-12-07T05:15:58;22.80;;;10.30;;
1136;SDS011;557;48.466;7.950;2022-12-07T05:18:45;19.67;;;8.80;;
1136;SDS011;557;48.466;7.950;2022-12-07T05:21:31;23.80;;;9.77;;
1136;SDS011;557;48.466;7.950;2022-12-07T05:24:17;23.77;;;12.30;;
1136;SDS011;557;48.466;7.950;2022-12-07T05:27:03;19.90;;;9.20;;
1136;SDS011;557;48.466;7.950;2022-12-07T05:29:49;21.97;;;10.10;;
1136;SDS011;557;48.466;7.950;2022-12-07T05:32:35;20.30;;;10.03;;
1136;SDS011;557;48.466;7.950;2022-12-07T05:35:22;18.70;;;8.70;;
1136;SDS011;557;48.466;7.950;2022-12-07T05:38:08;21.00;;;10.10;;
1136;SDS011;557;48.466;7.950;2022-12-07T05:40:53;17.83;;;8.37;;
1136;SDS011;557;48.466;7.950;2022-12-07T05:43:39;13.00;;;8.00;;
1136;SDS011;557;48.466;7.950;2022-12-07T05:46:24;15.43;;;7.33;;
1136;SDS011;557;48.466;7.950;2022-12-07T05:49:10;14.07;;;7.23;;
1136;SDS011;557;48.466;7.950;2022-12-07T05:51:57;16.50;;;6.90;;
1136;SDS011;557;48.466;7.950;2022-12-07T05:54:43;19.23;;;6.87;;
1136;SDS011;557;48.466;7.950;2022-12-07T05:57:28;14.20;;;7.43;;
1136;SDS011;557;48.466;7.950;2022-12-07T06:00:14;14.20;;;7.67;;
1136;SDS011;557;48.466;7.950;2022-12-07T06:02:59;16.53;;;8.10;;
1136;SDS011;557;48.466;7.950;2022-12-07T06:05:44;15.13;;;7.53;;
1136;SDS011;557;48.466;7.950;2022-12-07T06:08:31;16.50;;;8.00;;
1136;SDS011;557;48.466;7.950;2022-12-07T06:11:17;14.97;;;7.43;;
1136;SDS011;557;48.466;7.950;2022-12-07T06:14:20;11.97;;;6.37;;
1136;SDS011;557;48.466;7.950;2022-12-07T06:17:05;13.57;;;8.33;;
1136;SDS011;557;48.466;7.950;2022-12-07T06:19:51;14.03;;;7.60;;
1136;SDS011;557;48.466;7.950;2022-12-07T06:22:37;16.73;;;9.33;;
1136;SDS011;557;48.466;7.950;2022-12-07T06:25:24;18.50;;;9.50;;
1136;SDS011;557;48.466;7.950;2022-12-07T06:28:09;14.97;;;8.27;;
1136;SDS011;557;48.466;7.950;2022-12-07T06:30:56;17.23;;;8.70;;
1136;SDS011;557;48.466;7.950;2022-12-07T06:33:43;18.80;;;9.30;;
1136;SDS011;557;48.466;7.950;2022-12-07T06:36:28;20.90;;;8.90;;
1136;SDS011;557;48.466;7.950;2022-12-07T06:39:14;18.03;;;9.00;;
1136;SDS011;557;48.466;7.950;2022-12-07T06:42:02;20.27;;;8.90;;
1136;SDS011;557;48.466;7.950;2022-12-07T06:44:48;13.80;;;8.10;;
1136;SDS011;557;48.466;7.950;2022-12-07T06:47:34;15.27;;;7.47;;
1136;SDS011;557;48.466;7.950;2022-12-07T06:50:21;15.40;;;8.43;;
1136;SDS011;557;48.466;7.950;2022-12-07T06:53:07;17.43;;;8.10;;
1136;SDS011;557;48.466;7.950;2022-12-07T06:55:53;12.97;;;6.87;;
1136;SDS011;557;48.466;7.950;2022-12-07T06:58:41;12.67;;;7.47;;
1136;SDS011;557;48.466;7.950;2022-12-07T07:01:26;14.00;;;7.63;;
1136;SDS011;557;48.466;7.950;2022-12-07T07:04:12;12.27;;;6.60;;
1136;SDS011;557;48.466;7.950;2022-12-07T07:06:58;14.90;;;6.23;;
1136;SDS011;557;48.466;7.950;2022-12-07T07:09:43;16.40;;;8.47;;
1136;SDS011;557;48.466;7.950;2022-12-07T07:12:29;11.50;;;6.03;;
1136;SDS011;557;48.466;7.950;2022-12-07T07:15:16;16.43;;;6.47;;
1136;SDS011;557;48.466;7.950;2022-12-07T07:18:02;16.97;;;6.33;;
1136;SDS011;557;48.466;7.950;2022-12-07T07:20:49;14.83;;;7.30;;
1136;SDS011;557;48.466;7.950;2022-12-07T07:23:35;17.40;;;8.17;;
1136;SDS011;557;48.466;7.950;2022-12-07T07:26:21;17.10;;;8.60;;
1136;SDS011;557;48.466;7.950;2022-12-07T07:29:06;13.03;;;6.97;;
1136;SDS011;557;48.466;7.950;2022-12-07T07:31:53;19.73;;;7.80;;
1136;SDS011;557;48.466;7.950;2022-12-07T07:34:39;20.77;;;12.23;;
1136;SDS011;557;48.466;7.950;2022-12-07T07:37:25;16.23;;;10.10;;
1136;SDS011;557;48.466;7.950;2022-12-07T07:40:11;19.87;;;8.80;;
1136;SDS011;557;48.466;7.950;2022-12-07T07:42:57;16.70;;;8.33;;
1136;SDS011;557;48.466;7.950;2022-12-07T07:45:43;16.53;;;7.83;;
1136;SDS011;557;48.466;7.950;2022-12-07T07:48:30;16.00;;;7.30;;
1136;SDS011;557;48.466;7.950;2022-12-07T07:51:16;16.53;;;8.20;;
1136;SDS011;557;48.466;7.950;2022-12-07T07:54:02;17.57;;;7.67;;
1136;SDS011;557;48.466;7.950;2022-12-07T07:56:49;17.77;;;7.53;;
1136;SDS011;557;48.466;7.950;2022-12-07T07:59:35;16.13;;;7.87;;
1136;SDS011;557;48.466;7.950;2022-12-07T08:02:20;17.87;;;7.80;;
1136;SDS011;557;48.466;7.950;2022-12-07T08:05:08;16.63;;;8.33;;
1136;SDS011;557;48.466;7.950;2022-12-07T08:07:54;20.70;;;9.33;;
1136;SDS011;557;48.466;7.950;2022-12-07T08:10:42;24.63;;;8.47;;
1136;SDS011;557;48.466;7.950;2022-12-07T08:13:28;14.87;;;6.90;;
1136;SDS011;557;48.466;7.950;2022-12-07T08:16:13;23.00;;;9.53;;
1136;SDS011;557;48.466;7.950;2022-12-07T08:18:59;24.03;;;9.20;;
1136;SDS011;557;48.466;7.950;2022-12-07T08:21:45;17.60;;;7.97;;
1136;SDS011;557;48.466;7.950;2022-12-07T08:24:32;14.80;;;6.90;;
1136;SDS011;557;48.466;7.950;2022-12-07T08:27:18;13.77;;;7.20;;
1136;SDS011;557;48.466;7.950;2022-12-07T08:30:04;19.10;;;8.97;;
1136;SDS011;557;48.466;7.950;2022-12-07T08:32:50;18.13;;;8.47;;
1136;SDS011;557;48.466;7.950;2022-12-07T08:35:36;16.00;;;6.87;;
1136;SDS011;557;48.466;7.950;2022-12-07T08:38:23;13.70;;;7.37;;
1136;SDS011;557;48.466;7.950;2022-12-07T08:41:09;15.00;;;8.27;;
1136;SDS011;557;48.466;7.950;2022-12-07T08:43:54;17.67;;;7.37;;
1136;SDS011;557;48.466;7.950;2022-12-07T08:46:40;19.70;;;8.93;;
1136;SDS011;557;48.466;7.950;2022-12-07T08:49:31;20.00;;;8.67;;
1136;SDS011;557;48.466;7.950;2022-12-07T08:52:20;17.40;;;8.50;;
1136;SDS011;557;48.466;7.950;2022-12-07T08:55:09;13.60;;;7.40;;
1136;SDS011;557;48.466;7.950;2022-12-07T08:57:57;16.43;;;7.30;;
1136;SDS011;557;48.466;7.950;2022-12-07T09:00:43;12.60;;;6.40;;
1136;SDS011;557;48.466;7.950;2022-12-07T09:03:28;14.53;;;8.20;;
1136;SDS011;557;48.466;7.950;2022-12-07T09:06:14;13.37;;;7.20;;
1136;SDS011;557;48.466;7.950;2022-12-07T09:09:00;15.27;;;7.63;;
1136;SDS011;557;48.466;7.950;2022-12-07T09:11:49;13.60;;;6.60;;
1136;SDS011;557;48.466;7.950;2022-12-07T09:14:34;15.90;;;7.03;;
1136;SDS011;557;48.466;7.950;2022-12-07T09:17:20;12.70;;;7.40;;
1136;SDS011;557;48.466;7.950;2022-12-07T09:20:06;14.47;;;7.33;;
1136;SDS011;557;48.466;7.950;2022-12-07T09:22:52;12.60;;;6.60;;
1136;SDS011;557;48.466;7.950;2022-12-07T09:25:38;13.90;;;7.87;;
1136;SDS011;557;48.466;7.950;2022-12-07T09:28:25;15.87;;;8.03;;
1136;SDS011;557;48.466;7.950;2022-12-07T09:31:11;17.67;;;8.90;;
1136;SDS011;557;48.466;7.950;2022-12-07T09:33:56;15.47;;;7.80;;
1136;SDS011;557;48.466;7.950;2022-12-07T09:36:43;11.77;;;6.33;;
1136;SDS011;557;48.466;7.950;2022-12-07T09:39:29;13.77;;;7.13;;
1136;SDS011;557;48.466;7.950;2022-12-07T09:42:19;12.70;;;6.13;;
1136;SDS011;557;48.466;7.950;2022-12-07T09:45:15;13.67;;;7.07;;
1136;SDS011;557;48.466;7.950;2022-12-07T09:48:05;14.80;;;7.60;;
1136;SDS011;557;48.466;7.950;2022-12-07T09:50:57;13.07;;;6.80;;
1136;SDS011;557;48.466;7.950;2022-12-07T09:53:43;15.67;;;7.40;;
1136;SDS011;557;48.466;7.950;2022-12-07T09:56:31;14.00;;;7.13;;
1136;SDS011;557;48.466;7.950;2022-12-07T09:59:17;10.87;;;6.83;;
1136;SDS011;557;48.466;7.950;2022-12-07T10:05:13;12.10;;;6.40;;
1136;SDS011;557;48.466;7.950;2022-12-07T10:08:00;14.73;;;7.10;;
1136;SDS011;557;48.466;7.950;2022-12-07T10:10:48;20.00;;;9.13;;
1136;SDS011;557;48.466;7.950;2022-12-07T10:13:37;18.10;;;10.40;;
1136;SDS011;557;48.466;7.950;2022-12-07T10:16:27;19.00;;;10.40;;
1136;SDS011;557;48.466;7.950;2022-12-07T10:19:24;14.23;;;8.00;;
1136;SDS011;557;48.466;7.950;2022-12-07T10:22:12;18.03;;;8.07;;
1136;SDS011;557;48.466;7.950;2022-12-07T10:25:07;18.57;;;9.07;;
1136;SDS011;557;48.466;7.950;2022-12-07T10:27:57;20.00;;;9.43;;
1136;SDS011;557;48.466;7.950;2022-12-07T10:30:48;17.50;;;8.60;;
1136;SDS011;557;48.466;7.950;2022-12-07T10:33:37;16.90;;;9.07;;
1136;SDS011;557;48.466;7.950;2022-12-07T10:36:35;24.03;;;10.30;;
1136;SDS011;557;48.466;7.950;2022-12-07T10:39:22;14.93;;;7.57;;
1136;SDS011;557;48.466;7.950;2022-12-07T10:42:15;13.10;;;7.30;;
1136;SDS011;557;48.466;7.950;2022-12-07T10:45:09;12.10;;;7.13;;
1136;SDS011;557;48.466;7.950;2022-12-07T10:48:00;14.80;;;7.00;;
1136;SDS011;557;48.466;7.950;2022-12-07T10:50:54;11.80;;;7.00;;
1136;SDS011;557;48.466;7.950;2022-12-07T10:53:54;13.70;;;7.23;;
1136;SDS011;557;48.466;7.950;2022-12-07T11:00:06;10.77;;;6.20;;
1136;SDS011;557;48.466;7.950;2022-12-07T11:03:22;12.97;;;7.87;;
1136;SDS011;557;48.466;7.950;2022-12-07T11:06:35;16.90;;;8.27;;
1136;SDS011;557;48.466;7.950;2022-12-07T11:09:32;12.40;;;6.50;;
1136;SDS011;557;48.466;7.950;2022-12-07T11:12:31;12.97;;;6.90;;
1136;SDS011;557;48.466;7.950;2022-12-07T11:15:36;15.23;;;7.57;;
1136;SDS011;557;48.466;7.950;2022-12-07T11:18:32;12.30;;;5.77;;
1136;SDS011;557;48.466;7.950;2022-12-07T11:21:27;13.13;;;7.93;;
1136;SDS011;557;48.466;7.950;2022-12-07T11:24:18;15.20;;;8.10;;
1136;SDS011;557;48.466;7.950;2022-12-07T11:27:12;14.37;;;6.97;;
1136;SDS011;557;48.466;7.950;2022-12-07T11:30:15;18.63;;;8.27;;
1136;SDS011;557;48.466;7.950;2022-12-07T11:33:10;13.97;;;8.07;;
1136;SDS011;557;48.466;7.950;2022-12-07T11:36:02;13.50;;;7.70;;
1136;SDS011;557;48.466;7.950;2022-12-07T11:38:57;12.30;;;7.03;;
1136;SDS011;557;48.466;7.950;2022-12-07T11:41:45;12.80;;;7.33;;
1136;SDS011;557;48.466;7.950;2022-12-07T11:44:37;12.40;;;6.83;;
1136;SDS011;557;48.466;7.950;2022-12-07T11:47:30;13.70;;;7.80;;
1136;SDS011;557;48.466;7.950;2022-12-07T11:50:27;16.47;;;8.90;;
1136;SDS011;557;48.466;7.950;2022-12-07T11:53:20;15.37;;;7.50;;
1136;SDS011;557;48.466;7.950;2022-12-07T11:56:11;13.53;;;7.17;;
1136;SDS011;557;48.466;7.950;2022-12-07T11:58:59;12.40;;;7.23;;
1136;SDS011;557;48.466;7.950;2022-12-07T12:01:55;13.20;;;7.47;;
1136;SDS011;557;48.466;7.950;2022-12-07T12:04:47;10.40;;;6.50;;
1136;SDS011;557;48.466;7.950;2022-12-07T12:07:38;13.70;;;7.30;;
1136;SDS011;557;48.466;7.950;2022-12-07T12:10:26;9.70;;;5.93;;
1136;SDS011;557;48.466;7.950;2022-12-07T12:16:35;10.90;;;6.20;;
1136;SDS011;557;48.466;7.950;2022-12-07T12:20:02;15.13;;;7.00;;
1136;SDS011;557;48.466;7.950;2022-12-07T12:22:53;14.40;;;6.50;;
1136;SDS011;557;48.466;7.950;2022-12-07T12:25:41;10.23;;;6.43;;
1136;SDS011;557;48.466;7.950;2022-12-07T12:28:39;12.23;;;6.93;;
1136;SDS011;557;48.466;7.950;2022-12-07T12:31:31;13.37;;;7.70;;
1136;SDS011;557;48.466;7.950;2022-12-07T12:34:30;12.73;;;6.60;;
1136;SDS011;557;48.466;7.950;2022-12-07T12:43:41;9.97;;;6.40;;
1136;SDS011;557;48.466;7.950;2022-12-07T12:49:38;13.73;;;6.93;;
1136;SDS011;557;48.466;7.950;2022-12-07T13:02:20;7.50;;;4.63;;
1136;SDS011;557;48.466;7.950;2022-12-07T13:05:16;7.77;;;5.23;;
1136;SDS011;557;48.466;7.950;2022-12-07T13:08:10;9.07;;;5.50;;
1136;SDS011;557;48.466;7.950;2022-12-07T13:11:15;9.57;;;4.47;;
1136;SDS011;557;48.466;7.950;2022-12-07T13:24:27;8.50;;;5.67;;
1136;SDS011;557;48.466;7.950;2022-12-07T13:27:17;10.83;;;7.37;;
1136;SDS011;557;48.466;7.950;2022-12-07T13:30:06;8.33;;;5.90;;
1136;SDS011;557;48.466;7.950;2022-12-07T13:32:59;8.77;;;5.37;;
1136;SDS011;557;48.466;7.950;2022-12-07T13:35:45;8.43;;;5.03;;
1136;SDS011;557;48.466;7.950;2022-12-07T13:38:32;10.17;;;5.00;;
1136;SDS011;557;48.466;7.950;2022-12-07T13:41:22;7.10;;;4.53;;
1136;SDS011;557;48.466;7.950;2022-12-07T13:44:11;8.97;;;5.60;;
1136;SDS011;557;48.466;7.950;2022-12-07T13:46:59;9.23;;;5.47;;
1136;SDS011;557;48.466;7.950;2022-12-07T13:49:51;10.00;;;5.10;;
1136;SDS011;557;48.466;7.950;2022-12-07T13:52:42;9.70;;;5.20;;
1136;SDS011;557;48.466;7.950;2022-12-07T13:55:29;7.63;;;4.90;;
1136;SDS011;557;48.466;7.950;2022-12-07T13:58:16;10.63;;;6.47;;
1136;SDS011;557;48.466;7.950;2022-12-07T14:01:02;10.40;;;6.57;;
1136;SDS011;557;48.466;7.950;2022-12-07T14:03:47;9.50;;;6.40;;
1136;SDS011;557;48.466;7.950;2022-12-07T14:06:33;11.80;;;7.13;;
1136;SDS011;557;48.466;7.950;2022-12-07T14:09:19;10.60;;;6.80;;
1136;SDS011;557;48.466;7.950;2022-12-07T14:12:06;7.97;;;6.13;;
1136;SDS011;557;48.466;7.950;2022-12-07T14:14:53;7.53;;;5.10;;
1136;SDS011;557;48.466;7.950;2022-12-07T14:17:49;8.73;;;5.47;;
1136;SDS011;557;48.466;7.950;2022-12-07T14:20:37;10.00;;;5.90;;
1136;SDS011;557;48.466;7.950;2022-12-07T14:23:24;9.00;;;5.93;;
1136;SDS011;557;48.466;7.950;2022-12-07T14:26:11;12.20;;;6.67;;
1136;SDS011;557;48.466;7.950;2022-12-07T14:32:19;8.70;;;5.43;;
1136;SDS011;557;48.466;7.950;2022-12-07T14:35:12;7.90;;;5.50;;
1136;SDS011;557;48.466;7.950;2022-12-07T14:37:59;8.90;;;6.23;;
1136;SDS011;557;48.466;7.950;2022-12-07T14:40:45;10.80;;;6.50;;
1136;SDS011;557;48.466;7.950;2022-12-07T14:43:31;10.47;;;6.30;;
1136;SDS011;557;48.466;7.950;2022-12-07T14:46:16;11.83;;;6.37;;
1136;SDS011;557;48.466;7.950;2022-12-07T14:49:03;15.13;;;6.23;;
1136;SDS011;557;48.466;7.950;2022-12-07T14:51:49;13.70;;;8.73;;
1136;SDS011;557;48.466;7.950;2022-12-07T14:54:34;9.57;;;6.20;;
1136;SDS011;557;48.466;7.950;2022-12-07T14:57:20;13.03;;;6.30;;
1136;SDS011;557;48.466;7.950;2022-12-07T15:00:08;12.83;;;6.87;;
1136;SDS011;557;48.466;7.950;2022-12-07T15:02:58;11.63;;;6.90;;
1136;SDS011;557;48.466;7.950;2022-12-07T15:05:44;12.03;;;6.30;;
1136;SDS011;557;48.466;7.950;2022-12-07T15:08:30;12.33;;;6.20;;
1136;SDS011;557;48.466;7.950;2022-12-07T15:11:17;10.20;;;6.50;;
1136;SDS011;557;48.466;7.950;2022-12-07T15:14:03;13.03;;;6.37;;
1136;SDS011;557;48.466;7.950;2022-12-07T15:16:55;15.60;;;8.20;;
1136;SDS011;557;48.466;7.950;2022-12-07T15:19:41;13.47;;;6.80;;
1136;SDS011;557;48.466;7.950;2022-12-07T15:22:28;12.50;;;6.90;;
1136;SDS011;557;48.466;7.950;2022-12-07T15:25:15;17.30;;;8.57;;
1136;SDS011;557;48.466;7.950;2022-12-07T15:28:01;15.87;;;9.10;;
1136;SDS011;557;48.466;7.950;2022-12-07T15:30:46;15.73;;;8.10;;
1136;SDS011;557;48.466;7.950;2022-12-07T15:33:32;13.33;;;7.60;;
1136;SDS011;557;48.466;7.950;2022-12-07T15:36:19;14.00;;;8.53;;
1136;SDS011;557;48.466;7.950;2022-12-07T15:39:07;13.63;;;7.20;;
1136;SDS011;557;48.466;7.950;2022-12-07T15:41:53;11.67;;;6.47;;
1136;SDS011;557;48.466;7.950;2022-12-07T15:44:39;14.27;;;6.87;;
1136;SDS011;557;48.466;7.950;2022-12-07T15:47:43;14.67;;;7.77;;
1136;SDS011;557;48.466;7.950;2022-12-07T15:50:29;13.73;;;7.00;;
1136;SDS011;557;48.466;7.950;2022-12-07T15:53:15;18.37;;;7.27;;
1136;SDS011;557;48.466;7.950;2022-12-07T15:56:05;12.00;;;7.07;;
1136;SDS011;557;48.466;7.950;2022-12-07T15:58:51;12.83;;;7.43;;
1136;SDS011;557;48.466;7.950;2022-12-07T16:01:37;11.23;;;6.10;;
1136;SDS011;557;48.466;7.950;2022-12-07T16:04:22;9.90;;;6.00;;
1136;SDS011;557;48.466;7.950;2022-12-07T16:07:08;13.77;;;7.07;;
1136;SDS011;557;48.466;7.950;2022-12-07T16:09:55;9.70;;;5.80;;
1136;SDS011;557;48.466;7.950;2022-12-07T16:12:42;10.83;;;6.43;;
1136;SDS011;557;48.466;7.950;2022-12-07T16:15:27;12.37;;;6.00;;
1136;SDS011;557;48.466;7.950;2022-12-07T16:18:13;13.70;;;6.57;;
1136;SDS011;557;48.466;7.950;2022-12-07T16:20:59;13.97;;;6.87;;
1136;SDS011;557;48.466;7.950;2022-12-07T16:23:45;14.33;;;7.90;;
1136;SDS011;557;48.466;7.950;2022-12-07T16:26:31;13.83;;;8.30;;
1136;SDS011;557;48.466;7.950;2022-12-07T16:29:18;16.20;;;6.97;;
1136;SDS011;557;48.466;7.950;2022-12-07T16:32:05;16.87;;;7.37;;
1136;SDS011;557;48.466;7.950;2022-12-07T16:34:51;14.63;;;7.73;;
1136;SDS011;557;48.466;7.950;2022-12-07T16:37:36;12.70;;;7.27;;
1136;SDS011;557;48.466;7.950;2022-12-07T16:40:22;15.27;;;8.00;;
1136;SDS011;557;48.466;7.950;2022-12-07T16:43:07;12.03;;;8.03;;
1136;SDS011;557;48.466;7.950;2022-12-07T16:45:57;15.37;;;7.97;;
1136;SDS011;557;48.466;7.950;2022-12-07T16:48:43;14.70;;;7.30;;
1136;SDS011;557;48.466;7.950;2022-12-07T16:51:29;15.40;;;8.40;;
1136;SDS011;557;48.466;7.950;2022-12-07T16:54:15;15.17;;;8.40;;
1136;SDS011;557;48.466;7.950;2022-12-07T16:57:00;16.20;;;8.53;;
1136;SDS011;557;48.466;7.950;2022-12-07T16:59:46;15.73;;;9.00;;
1136;SDS011;557;48.466;7.950;2022-12-07T17:02:34;14.53;;;7.70;;
1136;SDS011;557;48.466;7.950;2022-12-07T17:05:20;16.43;;;8.60;;
1136;SDS011;557;48.466;7.950;2022-12-07T17:08:06;13.27;;;7.27;;
1136;SDS011;557;48.466;7.950;2022-12-07T17:10:52;18.83;;;9.33;;
1136;SDS011;557;48.466;7.950;2022-12-07T17:13:37;17.20;;;8.17;;
1136;SDS011;557;48.466;7.950;2022-12-07T17:16:41;14.93;;;7.23;;
1136;SDS011;557;48.466;7.950;2022-12-07T17:19:28;16.70;;;8.50;;
1136;SDS011;557;48.466;7.950;2022-12-07T17:22:14;14.23;;;7.67;;
1136;SDS011;557;48.466;7.950;2022-12-07T17:24:59;20.70;;;8.77;;
1136;SDS011;557;48.466;7.950;2022-12-07T17:27:45;16.77;;;8.90;;
1136;SDS011;557;48.466;7.950;2022-12-07T17:30:31;17.43;;;8.37;;
1136;SDS011;557;48.466;7.950;2022-12-07T17:33:17;15.93;;;8.97;;
1136;SDS011;557;48.466;7.950;2022-12-07T17:36:10;17.27;;;8.60;;
1136;SDS011;557;48.466;7.950;2022-12-07T17:38:56;16.03;;;8.67;;
1136;SDS011;557;48.466;7.950;2022-12-07T17:41:42;19.10;;;9.67;;
1136;SDS011;557;48.466;7.950;2022-12-07T17:44:46;20.93;;;9.37;;
1136;SDS011;557;48.466;7.950;2022-12-07T17:47:32;19.47;;;9.30;;
1136;SDS011;557;48.466;7.950;2022-12-07T17:50:19;15.93;;;9.13;;
1136;SDS011;557;48.466;7.950;2022-12-07T17:53:26;17.17;;;9.10;;
1136;SDS011;557;48.466;7.950;2022-12-07T17:56:12;23.80;;;11.00;;
1136;SDS011;557;48.466;7.950;2022-12-07T17:58:58;17.57;;;8.93;;
1136;SDS011;557;48.466;7.950;2022-12-07T18:01:44;18.57;;;8.30;;
1136;SDS011;557;48.466;7.950;2022-12-07T18:04:30;19.53;;;10.07;;
1136;SDS011;557;48.466;7.950;2022-12-07T18:07:16;18.63;;;9.70;;
1136;SDS011;557;48.466;7.950;2022-12-07T18:10:07;22.00;;;9.93;;
1136;SDS011;557;48.466;7.950;2022-12-07T18:13:00;21.97;;;10.67;;